createdAt,value
2019-04-25T00:00:51.407Z,8.83
2019-04-25T00:04:19.520Z,8.87
2019-04-25T00:06:52.181Z,8.88
2019-04-25T00:09:23.603Z,8.83
2019-04-25T00:11:53.278Z,8.80
2019-04-25T00:14:23.684Z,8.81
2019-04-25T00:16:54.386Z,8.83
2019-04-25T00:19:24.654Z,8.82
2019-04-25T00:21:55.918Z,8.79
2019-04-25T00:24:32.708Z,8.82
2019-04-25T00:27:02.380Z,8.86
2019-04-25T00:29:32.136Z,8.88
2019-04-25T00:32:01.941Z,8.89
2019-04-25T00:34:33.597Z,8.92
2019-04-25T00:37:03.418Z,8.89
2019-04-25T00:39:34.650Z,8.85
2019-04-25T00:42:04.512Z,8.85
2019-04-25T00:44:36.124Z,8.85
2019-04-25T00:47:05.932Z,8.87
2019-04-25T00:49:35.621Z,8.89
2019-04-25T00:52:05.289Z,8.89
2019-04-25T00:54:35.096Z,8.85
2019-04-25T00:58:11.535Z,8.88
2019-04-25T01:00:49.115Z,8.86
2019-04-25T01:03:23.391Z,8.80
2019-04-25T01:05:53.659Z,8.80
2019-04-25T01:08:24.415Z,8.79
2019-04-25T01:10:54.283Z,8.80
2019-04-25T01:13:23.996Z,8.85
2019-04-25T01:15:53.802Z,8.77
2019-04-25T01:18:25.242Z,8.79
2019-04-25T01:20:55.519Z,8.78
2019-04-25T01:23:25.255Z,8.77
2019-04-25T01:25:55.822Z,8.73
2019-04-25T01:28:25.600Z,8.73
2019-04-25T01:30:56.828Z,8.76
2019-04-25T01:33:28.342Z,8.75
2019-04-25T01:36:15.746Z,8.75
2019-04-25T01:38:58.972Z,8.80
2019-04-25T01:41:34.225Z,8.76
2019-04-25T01:44:07.985Z,8.80
2019-04-25T01:46:39.463Z,8.79
2019-04-25T01:49:09.099Z,8.78
2019-04-25T01:51:38.859Z,8.76
2019-04-25T01:54:08.501Z,8.75
2019-04-25T01:56:38.272Z,8.73
2019-04-25T01:59:08.014Z,8.70
2019-04-25T02:01:39.465Z,8.69
2019-04-25T02:04:09.242Z,8.65
2019-04-25T02:06:39.339Z,8.58
2019-04-25T02:09:13.671Z,8.53
2019-04-25T02:12:04.892Z,8.51
2019-04-25T02:14:35.533Z,8.47
2019-04-25T02:17:05.371Z,8.45
2019-04-25T02:19:35.756Z,8.38
2019-04-25T02:22:06.070Z,8.36
2019-04-25T02:24:35.963Z,8.29
2019-04-25T02:27:05.980Z,8.27
2019-04-25T02:29:35.611Z,8.27
2019-04-25T02:32:08.917Z,8.23
2019-04-25T02:34:37.266Z,8.23
2019-04-25T02:37:09.376Z,8.23
2019-04-25T02:39:38.940Z,8.22
2019-04-25T02:42:08.898Z,8.23
2019-04-25T02:44:40.435Z,8.22
2019-04-25T02:47:17.764Z,8.25
2019-04-25T02:49:49.144Z,8.26
2019-04-25T02:52:21.102Z,8.24
2019-04-25T02:54:54.524Z,8.30
2019-04-25T02:57:25.099Z,8.34
2019-04-25T02:59:56.877Z,8.36
2019-04-25T03:02:26.461Z,8.36
2019-04-25T03:04:57.567Z,8.31
2019-04-25T03:07:29.234Z,8.33
2019-04-25T03:09:59.572Z,8.29
2019-04-25T03:12:33.493Z,8.26
2019-04-25T03:15:04.466Z,8.24
2019-04-25T03:17:34.257Z,8.19
2019-04-25T03:20:24.403Z,8.22
2019-04-25T03:22:55.823Z,8.26
2019-04-25T03:25:25.577Z,8.23
2019-04-25T03:27:55.546Z,8.18
2019-04-25T03:30:25.713Z,8.21
2019-04-25T03:32:56.162Z,8.25
2019-04-25T03:35:26.097Z,8.26
2019-04-25T03:37:55.696Z,8.28
2019-04-25T03:40:25.273Z,8.34
2019-04-25T03:42:54.878Z,8.39
2019-04-25T03:45:24.628Z,8.45
2019-04-25T03:47:54.403Z,8.46
2019-04-25T03:50:24.109Z,8.51
2019-04-25T03:52:54.076Z,8.54
2019-04-25T03:55:25.002Z,8.59
2019-04-25T03:57:54.485Z,8.63
2019-04-25T04:00:24.450Z,8.69
2019-04-25T04:02:55.369Z,8.74
2019-04-25T04:05:25.361Z,8.77
2019-04-25T04:07:55.294Z,8.80
2019-04-25T04:10:25.105Z,8.81
2019-04-25T04:12:54.931Z,8.85
2019-04-25T04:15:25.503Z,8.89
2019-04-25T04:18:14.455Z,8.96
2019-04-25T04:20:49.594Z,9.00
2019-04-25T04:23:23.224Z,9.03
2019-04-25T04:25:54.604Z,9.00
2019-04-25T04:28:25.146Z,8.95
2019-04-25T04:30:56.642Z,8.98
2019-04-25T04:33:32.204Z,8.97
2019-04-25T04:36:00.373Z,9.05
2019-04-25T04:38:30.989Z,8.96
2019-04-25T04:41:01.318Z,9.03
2019-04-25T04:43:31.769Z,9.11
2019-04-25T04:46:03.837Z,9.14
2019-04-25T04:48:34.215Z,9.13
2019-04-25T04:51:04.899Z,9.05
2019-04-25T04:53:35.851Z,9.05
2019-04-25T04:56:06.373Z,9.11
2019-04-25T04:58:36.783Z,9.17
2019-04-25T05:01:06.964Z,9.24
2019-04-25T05:03:56.644Z,9.32
2019-04-25T05:06:43.786Z,9.40
2019-04-25T05:09:16.501Z,9.51
2019-04-25T05:11:47.326Z,9.57
2019-04-25T05:14:19.543Z,9.61
2019-04-25T05:16:50.101Z,9.71
2019-04-25T05:19:20.512Z,9.76
2019-04-25T05:21:50.813Z,9.87
2019-04-25T05:24:21.172Z,9.98
2019-04-25T05:26:51.463Z,10.03
2019-04-25T05:29:23.454Z,10.08
2019-04-25T05:31:54.254Z,10.12
2019-04-25T05:34:26.294Z,10.10
2019-04-25T05:36:56.651Z,10.16
2019-04-25T05:39:27.939Z,10.28
2019-04-25T05:42:04.339Z,10.42
2019-04-25T05:44:36.224Z,10.49
2019-04-25T05:47:06.512Z,10.59
2019-04-25T05:49:37.175Z,10.72
2019-04-25T05:52:08.955Z,10.74
2019-04-25T05:54:39.524Z,10.82
2019-04-25T05:57:10.027Z,10.89
2019-04-25T05:59:40.817Z,11.04
2019-04-25T06:02:13.877Z,11.20
2019-04-25T06:04:44.379Z,11.28
2019-04-25T06:07:14.591Z,11.44
2019-04-25T06:09:44.699Z,11.49
2019-04-25T06:12:33.219Z,11.51
2019-04-25T06:15:03.551Z,11.60
2019-04-25T06:17:38.534Z,11.62
2019-04-25T06:20:11.132Z,11.66
2019-04-25T06:22:53.398Z,11.62
2019-04-25T06:25:32.141Z,11.60
2019-04-25T06:28:03.695Z,11.58
2019-04-25T06:30:35.224Z,11.62
2019-04-25T06:33:07.263Z,11.68
2019-04-25T06:35:37.550Z,11.69
2019-04-25T06:38:07.649Z,11.73
2019-04-25T06:40:38.321Z,11.76
2019-04-25T06:43:09.004Z,11.84
2019-04-25T06:45:56.631Z,11.88
2019-04-25T06:48:28.998Z,11.94
2019-04-25T06:50:59.380Z,11.99
2019-04-25T06:53:30.542Z,11.96
2019-04-25T06:56:03.536Z,12.00
2019-04-25T06:58:34.474Z,12.07
2019-04-25T07:01:08.449Z,12.01
2019-04-25T07:03:40.430Z,12.02
2019-04-25T07:06:10.664Z,12.10
2019-04-25T07:08:41.114Z,12.18
2019-04-25T07:11:11.539Z,12.26
2019-04-25T07:13:43.814Z,12.27
2019-04-25T07:16:15.554Z,12.30
2019-04-25T07:18:45.739Z,12.40
2019-04-25T07:21:16.302Z,12.41
2019-04-25T07:23:46.637Z,12.49
2019-04-25T07:26:19.027Z,12.49
2019-04-25T07:29:03.346Z,12.53
2019-04-25T07:31:48.435Z,12.62
2019-04-25T07:34:21.453Z,12.62
2019-04-25T07:36:53.544Z,12.65
2019-04-25T07:39:25.540Z,12.65
2019-04-25T07:41:57.617Z,12.65
2019-04-25T07:44:38.244Z,12.62
2019-04-25T07:47:01.724Z,12.67
2019-04-25T07:49:33.586Z,12.73
2019-04-25T07:52:04.500Z,12.61
2019-04-25T07:54:35.500Z,12.67
2019-04-25T07:57:07.738Z,12.75
2019-04-25T07:59:38.794Z,12.79
2019-04-25T08:02:09.153Z,12.82
2019-04-25T08:04:39.753Z,12.90
2019-04-25T08:07:10.201Z,12.96
2019-04-25T08:09:40.671Z,12.99
2019-04-25T08:12:13.346Z,13.03
2019-04-25T08:14:54.232Z,13.16
2019-04-25T08:17:34.143Z,13.27
2019-04-25T08:20:06.490Z,13.42
2019-04-25T08:22:52.917Z,13.57
2019-04-25T08:25:11.128Z,13.61
2019-04-25T08:27:41.542Z,13.68
2019-04-25T08:30:11.799Z,13.74
2019-04-25T08:32:43.943Z,13.78
2019-04-25T08:35:17.632Z,13.90
2019-04-25T08:37:48.270Z,13.93
2019-04-25T08:40:20.575Z,14.00
2019-04-25T08:42:53.798Z,14.03
2019-04-25T08:45:24.608Z,14.03
2019-04-25T08:47:54.891Z,13.99
2019-04-25T08:50:33.174Z,14.01
2019-04-25T08:53:01.589Z,13.98
2019-04-25T08:55:44.416Z,13.98
2019-04-25T08:58:15.565Z,13.98
2019-04-25T09:01:00.822Z,13.96
2019-04-25T09:03:46.967Z,13.96
2019-04-25T09:06:17.504Z,13.89
2019-04-25T09:08:53.926Z,13.86
2019-04-25T09:11:25.371Z,13.92
2019-04-25T09:13:55.627Z,13.99
2019-04-25T09:16:26.114Z,14.13
2019-04-25T09:18:56.373Z,14.20
2019-04-25T09:21:26.651Z,14.30
2019-04-25T09:23:57.073Z,14.33
2019-04-25T09:26:28.772Z,14.38
2019-04-25T09:28:59.912Z,14.54
2019-04-25T09:31:30.379Z,14.75
2019-04-25T09:34:00.707Z,14.87
2019-04-25T09:36:33.642Z,14.95
2019-04-25T09:39:07.488Z,15.02
2019-04-25T09:41:38.021Z,15.17
2019-04-25T09:44:09.824Z,15.20
2019-04-25T09:46:40.253Z,15.26
2019-04-25T09:49:21.269Z,15.25
2019-04-25T09:51:54.523Z,15.40
2019-04-25T09:54:45.230Z,15.58
2019-04-25T09:57:27.742Z,15.70
2019-04-25T09:59:58.070Z,15.85
2019-04-25T10:02:28.563Z,15.96
2019-04-25T10:04:58.842Z,16.03
2019-04-25T10:07:30.375Z,16.04
2019-04-25T10:10:01.455Z,16.17
2019-04-25T10:12:32.068Z,16.26
2019-04-25T10:15:30.761Z,16.24
2019-04-25T10:18:01.259Z,16.18
2019-04-25T10:20:33.471Z,16.14
2019-04-25T10:23:02.777Z,16.09
2019-04-25T10:25:33.482Z,16.06
2019-04-25T10:28:04.382Z,15.99
2019-04-25T10:30:35.038Z,15.99
2019-04-25T10:33:05.900Z,15.97
2019-04-25T10:35:46.746Z,16.06
2019-04-25T10:38:09.088Z,16.09
2019-04-25T10:40:40.547Z,16.09
2019-04-25T10:43:11.324Z,16.11
2019-04-25T10:45:42.353Z,16.11
2019-04-25T10:48:13.703Z,16.08
2019-04-25T10:50:47.081Z,16.10
2019-04-25T10:53:17.524Z,16.05
2019-04-25T10:55:50.658Z,16.14
2019-04-25T10:58:21.788Z,16.20
2019-04-25T11:00:55.488Z,16.29
2019-04-25T11:03:44.534Z,16.35
2019-04-25T11:06:16.581Z,16.42
2019-04-25T11:08:47.102Z,16.40
2019-04-25T11:11:17.643Z,16.31
2019-04-25T11:13:48.610Z,16.32
2019-04-25T11:16:19.134Z,16.34
2019-04-25T11:18:49.717Z,16.38
2019-04-25T11:21:19.897Z,16.40
2019-04-25T11:23:50.254Z,16.39
2019-04-25T11:26:20.553Z,16.37
2019-04-25T11:28:51.064Z,16.32
2019-04-25T11:31:23.721Z,16.43
2019-04-25T11:33:54.555Z,16.49
2019-04-25T11:36:25.245Z,16.49
2019-04-25T11:39:13.586Z,16.56
2019-04-25T11:41:46.108Z,16.65
2019-04-25T11:44:16.182Z,16.67
2019-04-25T11:46:46.831Z,16.81
2019-04-25T11:49:17.108Z,16.98
2019-04-25T11:51:48.852Z,17.07
2019-04-25T11:54:19.421Z,17.13
2019-04-25T11:56:50.686Z,17.15
2019-04-25T11:59:21.284Z,17.07
2019-04-25T12:01:52.529Z,17.00
2019-04-25T12:04:23.938Z,16.93
2019-04-25T12:06:54.605Z,16.83
2019-04-25T12:09:25.187Z,16.71
2019-04-25T12:11:57.255Z,16.68
2019-04-25T12:14:27.686Z,16.60
2019-04-25T12:16:57.963Z,16.39
2019-04-25T12:19:35.767Z,16.37
2019-04-25T12:22:00.380Z,16.34
2019-04-25T12:24:31.164Z,16.20
2019-04-25T12:27:01.479Z,16.18
2019-04-25T12:29:33.622Z,16.22
2019-04-25T12:32:04.247Z,16.34
2019-04-25T12:34:34.719Z,16.38
2019-04-25T12:37:05.223Z,16.39
2019-04-25T12:39:35.759Z,16.37
2019-04-25T12:42:07.880Z,16.50
2019-04-25T12:44:38.811Z,16.65
2019-04-25T12:47:10.643Z,16.69
2019-04-25T12:49:41.141Z,16.80
2019-04-25T12:52:12.978Z,16.82
2019-04-25T12:54:44.058Z,16.84
2019-04-25T12:57:15.424Z,16.83
2019-04-25T12:59:46.346Z,16.80
2019-04-25T13:02:17.908Z,16.81
2019-04-25T13:04:48.300Z,16.77
2019-04-25T13:07:18.842Z,16.76
2019-04-25T13:09:52.247Z,16.85
2019-04-25T13:12:20.392Z,16.76
2019-04-25T13:14:52.426Z,16.75
2019-04-25T13:17:24.148Z,16.74
2019-04-25T13:19:54.546Z,16.85
2019-04-25T13:22:25.462Z,16.73
2019-04-25T13:24:56.994Z,16.96
2019-04-25T13:27:31.551Z,17.07
2019-04-25T13:30:06.798Z,17.01
2019-04-25T13:32:48.503Z,17.11
2019-04-25T13:35:20.532Z,17.25
2019-04-25T13:37:50.972Z,17.24
2019-04-25T13:40:21.639Z,17.33
2019-04-25T13:42:53.180Z,17.31
2019-04-25T13:45:25.307Z,17.05
2019-04-25T13:47:55.653Z,16.95
2019-04-25T13:50:27.778Z,16.90
2019-04-25T13:52:57.782Z,16.69
2019-04-25T13:55:27.990Z,16.66
2019-04-25T13:57:59.196Z,16.14
2019-04-25T14:00:30.223Z,15.99
2019-04-25T14:03:00.705Z,15.57
2019-04-25T14:05:31.837Z,15.58
2019-04-25T14:08:02.780Z,15.00
2019-04-25T14:10:34.317Z,14.91
2019-04-25T14:13:06.769Z,14.65
2019-04-25T14:15:37.669Z,14.39
2019-04-25T14:18:24.280Z,14.41
2019-04-25T14:20:55.897Z,14.12
2019-04-25T14:23:27.329Z,14.13
2019-04-25T14:25:57.865Z,14.02
2019-04-25T14:28:31.346Z,13.70
2019-04-25T14:30:59.310Z,13.53
2019-04-25T14:33:30.576Z,13.24
2019-04-25T14:36:03.143Z,13.33
2019-04-25T14:38:33.831Z,13.47
2019-04-25T14:41:05.903Z,13.52
2019-04-25T14:43:36.450Z,13.45
2019-04-25T14:46:06.832Z,13.04
2019-04-25T14:48:37.421Z,13.05
2019-04-25T14:51:07.554Z,12.94
2019-04-25T14:53:37.979Z,12.82
2019-04-25T14:56:07.955Z,12.98
2019-04-25T14:58:40.007Z,12.87
2019-04-25T15:01:10.752Z,12.87
2019-04-25T15:03:42.297Z,12.83
2019-04-25T15:06:12.654Z,12.83
2019-04-25T15:08:43.056Z,12.72
2019-04-25T15:11:14.930Z,12.62
2019-04-25T15:13:45.401Z,12.76
2019-04-25T15:16:15.739Z,12.71
2019-04-25T15:18:47.157Z,12.67
2019-04-25T15:21:18.841Z,12.72
2019-04-25T15:23:59.667Z,12.77
2019-04-25T15:26:21.511Z,12.88
2019-04-25T15:28:52.179Z,12.94
2019-04-25T15:31:25.536Z,12.96
2019-04-25T15:33:55.964Z,12.92
2019-04-25T15:36:25.896Z,13.02
2019-04-25T15:39:03.375Z,13.08
2019-04-25T15:41:47.751Z,13.00
2019-04-25T15:44:25.438Z,12.80
2019-04-25T15:47:00.427Z,12.81
2019-04-25T15:49:31.261Z,12.93
2019-04-25T15:52:01.534Z,12.84
2019-04-25T15:54:31.952Z,12.83
2019-04-25T15:57:02.010Z,12.89
2019-04-25T15:59:32.873Z,12.80
2019-04-25T16:02:08.230Z,12.82
2019-04-25T16:04:36.155Z,12.78
2019-04-25T16:07:07.061Z,12.80
2019-04-25T16:09:37.464Z,12.85
2019-04-25T16:12:09.280Z,12.87
2019-04-25T16:14:41.253Z,12.89
2019-04-25T16:17:11.644Z,12.95
2019-04-25T16:19:42.138Z,12.92
2019-04-25T16:22:12.719Z,13.02
2019-04-25T16:24:43.004Z,12.93
2019-04-25T16:27:13.790Z,12.89
2019-04-25T16:29:44.191Z,12.92
2019-04-25T16:32:20.698Z,12.92
2019-04-25T16:34:49.267Z,12.91
2019-04-25T16:37:19.792Z,12.91
2019-04-25T16:39:50.314Z,12.87
2019-04-25T16:42:20.811Z,12.86
2019-04-25T16:44:51.063Z,12.86
2019-04-25T16:47:23.993Z,12.77
2019-04-25T16:49:54.517Z,12.66
2019-04-25T16:52:24.957Z,12.66
2019-04-25T16:54:55.326Z,12.68
2019-04-25T16:57:25.486Z,12.64
2019-04-25T16:59:56.076Z,12.71
2019-04-25T17:02:35.744Z,12.58
2019-04-25T17:05:00.064Z,12.42
2019-04-25T17:07:30.511Z,12.47
2019-04-25T17:10:00.749Z,12.44
2019-04-25T17:12:32.089Z,12.46
2019-04-25T17:15:04.088Z,12.44
2019-04-25T17:17:41.699Z,12.40
2019-04-25T17:20:14.552Z,12.41
2019-04-25T17:22:46.808Z,12.38
2019-04-25T17:25:18.197Z,12.39
2019-04-25T17:27:49.758Z,12.36
2019-04-25T17:30:20.796Z,12.41
2019-04-25T17:32:54.237Z,12.31
2019-04-25T17:35:29.167Z,12.28
2019-04-25T17:38:04.241Z,12.27
2019-04-25T17:40:35.542Z,12.09
2019-04-25T17:43:11.174Z,12.04
2019-04-25T17:45:37.039Z,11.95
2019-04-25T17:48:07.464Z,11.91
2019-04-25T17:50:37.570Z,11.94
2019-04-25T17:53:08.471Z,12.06
2019-04-25T17:55:39.570Z,12.02
2019-04-25T17:58:11.201Z,11.93
2019-04-25T18:00:43.697Z,11.90
2019-04-25T18:03:14.390Z,11.88
2019-04-25T18:05:44.764Z,11.84
2019-04-25T18:08:15.477Z,11.74
2019-04-25T18:10:46.277Z,11.73
2019-04-25T18:13:16.751Z,11.67
2019-04-25T18:15:48.430Z,11.60
2019-04-25T18:18:20.435Z,11.50
2019-04-25T18:20:51.770Z,11.45
2019-04-25T18:23:41.883Z,11.42
2019-04-25T18:26:25.495Z,11.45
2019-04-25T18:28:57.872Z,11.39
2019-04-25T18:31:28.039Z,11.42
2019-04-25T18:34:00.145Z,11.45
2019-04-25T18:36:35.197Z,11.48
2019-04-25T18:39:09.203Z,11.37
2019-04-25T18:41:41.825Z,11.28
2019-04-25T18:44:13.161Z,11.27
2019-04-25T18:46:47.842Z,11.30
2019-04-25T18:49:18.098Z,11.35
2019-04-25T18:51:57.800Z,11.38
2019-04-25T18:54:34.537Z,11.42
2019-04-25T18:57:05.995Z,11.51
2019-04-25T18:59:49.095Z,11.60
2019-04-25T19:02:27.623Z,11.50
2019-04-25T19:05:11.238Z,11.28
2019-04-25T19:07:43.116Z,11.22
2019-04-25T19:10:14.284Z,11.25
2019-04-25T19:12:43.991Z,11.33
2019-04-25T19:15:14.054Z,11.33
2019-04-25T19:17:45.393Z,11.36
2019-04-25T19:20:15.232Z,11.42
2019-04-25T19:22:45.785Z,11.43
2019-04-25T19:25:15.684Z,11.45
2019-04-25T19:27:46.460Z,11.37
2019-04-25T19:30:18.192Z,11.23
2019-04-25T19:32:49.097Z,11.16
2019-04-25T19:35:19.064Z,11.13
2019-04-25T19:37:49.145Z,11.11
2019-04-25T19:40:30.487Z,11.11
2019-04-25T19:43:16.157Z,11.20
2019-04-25T19:45:46.949Z,10.88
2019-04-25T19:48:16.721Z,11.08
2019-04-25T19:50:46.426Z,11.20
2019-04-25T19:53:16.262Z,11.03
2019-04-25T19:55:46.158Z,11.09
2019-04-25T19:58:15.910Z,11.10
2019-04-25T20:00:46.601Z,11.10
2019-04-25T20:03:23.888Z,11.16
2019-04-25T20:05:58.988Z,11.21
2019-04-25T20:08:42.279Z,11.22
2019-04-25T20:11:21.387Z,11.22
2019-04-25T20:13:51.301Z,11.22
2019-04-25T20:16:21.190Z,11.21
2019-04-25T20:18:51.804Z,11.25
2019-04-25T20:21:23.471Z,11.23
2019-04-25T20:23:53.147Z,11.19
2019-04-25T20:26:22.882Z,11.18
2019-04-25T20:28:53.359Z,11.13
2019-04-25T20:31:23.010Z,11.11
2019-04-25T20:34:03.206Z,11.14
2019-04-25T20:36:26.306Z,11.08
2019-04-25T20:38:56.040Z,11.10
2019-04-25T20:41:25.840Z,11.13
2019-04-25T20:43:56.968Z,11.11
2019-04-25T20:46:26.839Z,11.02
2019-04-25T20:48:56.535Z,11.07
2019-04-25T20:51:26.217Z,11.04
2019-04-25T20:53:57.030Z,10.98
2019-04-25T20:56:27.092Z,10.95
2019-04-25T20:58:57.629Z,10.89
2019-04-25T21:01:27.278Z,10.89
2019-04-25T21:03:56.933Z,10.86
2019-04-25T21:06:31.118Z,10.80
2019-04-25T21:09:00.745Z,10.76
2019-04-25T21:11:30.348Z,10.76
2019-04-25T21:14:01.471Z,10.68
2019-04-25T21:16:41.116Z,10.59
2019-04-25T21:19:18.603Z,10.67
2019-04-25T21:21:50.577Z,10.52
2019-04-25T21:24:20.252Z,10.53
2019-04-25T21:26:50.220Z,10.53
2019-04-25T21:29:21.081Z,10.51
2019-04-25T21:31:51.310Z,10.50
2019-04-25T21:34:26.072Z,10.51
2019-04-25T21:36:53.303Z,10.55
2019-04-25T21:39:24.921Z,10.58
2019-04-25T21:41:59.818Z,10.54
2019-04-25T21:44:29.947Z,10.49
2019-04-25T21:47:00.599Z,10.55
2019-04-25T21:49:30.702Z,10.55
2019-04-25T21:52:01.190Z,10.59
2019-04-25T21:54:31.060Z,10.55
2019-04-25T21:57:01.646Z,10.54
2019-04-25T21:59:32.016Z,10.57
2019-04-25T22:02:02.593Z,10.56
2019-04-25T22:04:38.754Z,10.50
2019-04-25T22:07:05.069Z,10.47
2019-04-25T22:09:35.355Z,10.50
2019-04-25T22:12:08.285Z,10.55
2019-04-25T22:14:37.929Z,10.59
2019-04-25T22:17:08.137Z,10.63
2019-04-25T22:19:38.361Z,10.67
2019-04-25T22:22:08.496Z,10.68
2019-04-25T22:24:38.196Z,10.73
2019-04-25T22:27:09.527Z,10.72
2019-04-25T22:29:40.793Z,10.75
2019-04-25T22:32:10.245Z,10.73
2019-04-25T22:34:52.379Z,10.67
2019-04-25T22:37:22.291Z,10.66
2019-04-25T22:39:52.103Z,10.61
2019-04-25T22:43:34.280Z,10.60
2019-04-25T22:46:05.978Z,10.59
2019-04-25T22:48:48.328Z,10.56
2019-04-25T22:51:19.147Z,10.57
2019-04-25T22:53:48.918Z,10.59
2019-04-25T22:56:18.707Z,10.59
2019-04-25T22:58:48.524Z,10.63
2019-04-25T23:01:20.081Z,10.58
2019-04-25T23:03:51.452Z,10.55
2019-04-25T23:06:21.467Z,10.53
2019-04-25T23:08:51.206Z,10.57
2019-04-25T23:11:21.219Z,10.63
2019-04-25T23:13:51.218Z,10.57
2019-04-25T23:16:21.358Z,10.54
2019-04-25T23:18:52.455Z,10.57
2019-04-25T23:21:23.180Z,10.59
2019-04-25T23:23:52.808Z,10.50
2019-04-25T23:26:23.254Z,10.66
2019-04-25T23:28:55.003Z,10.58
2019-04-25T23:31:26.281Z,10.54
2019-04-25T23:33:56.522Z,10.58
2019-04-25T23:36:26.260Z,10.51
2019-04-25T23:38:55.831Z,10.49
2019-04-25T23:41:26.739Z,10.47
2019-04-25T23:43:56.387Z,10.47
2019-04-25T23:46:26.491Z,10.47
2019-04-25T23:48:56.225Z,10.46
2019-04-25T23:51:25.968Z,10.51
2019-04-25T23:53:56.057Z,10.52
2019-04-25T23:56:25.800Z,10.51
2019-04-25T23:58:55.755Z,10.44
